sensor_id;sensor_type;location;lat;lon;timestamp;temperature;humidity
1524;DHT22;755;53.658;10.118;2023-04-24T00:07:08;11.90;99.90
1524;DHT22;755;53.658;10.118;2023-04-24T00:17:12;11.80;99.90
1524;DHT22;755;53.658;10.118;2023-04-24T00:27:14;11.80;99.90
1524;DHT22;755;53.658;10.118;2023-04-24T00:37:18;11.60;99.90
1524;DHT22;755;53.658;10.118;2023-04-24T00:47:22;11.50;99.90
1524;DHT22;755;53.658;10.118;2023-04-24T00:57:27;11.40;99.90
1524;DHT22;755;53.658;10.118;2023-04-24T01:07:29;11.30;99.90
1524;DHT22;755;53.658;10.118;2023-04-24T01:17:33;11.30;99.90
1524;DHT22;755;53.658;10.118;2023-04-24T01:27:38;11.30;99.90
1524;DHT22;755;53.658;10.118;2023-04-24T01:37:41;11.30;99.90
1524;DHT22;755;53.658;10.118;2023-04-24T01:47:45;11.30;99.90
1524;DHT22;755;53.658;10.118;2023-04-24T01:57:48;11.20;99.90
1524;DHT22;755;53.658;10.118;2023-04-24T02:07:52;11.30;99.90
1524;DHT22;755;53.658;10.118;2023-04-24T02:17:55;11.20;99.90
1524;DHT22;755;53.658;10.118;2023-04-24T02:27:58;11.10;99.90
1524;DHT22;755;53.658;10.118;2023-04-24T02:38:04;11.00;99.90
1524;DHT22;755;53.658;10.118;2023-04-24T02:48:08;11.00;99.90
1524;DHT22;755;53.658;10.118;2023-04-24T02:58:10;10.60;99.90
1524;DHT22;755;53.658;10.118;2023-04-24T03:08:15;10.50;99.90
1524;DHT22;755;53.658;10.118;2023-04-24T03:18:20;10.50;99.90
1524;DHT22;755;53.658;10.118;2023-04-24T03:28:24;10.40;99.90
1524;DHT22;755;53.658;10.118;2023-04-24T03:38:26;10.40;99.90
1524;DHT22;755;53.658;10.118;2023-04-24T03:48:30;10.40;99.90
1524;DHT22;755;53.658;10.118;2023-04-24T03:58:33;10.30;99.90
1524;DHT22;755;53.658;10.118;2023-04-24T04:08:36;10.20;99.90
1524;DHT22;755;53.658;10.118;2023-04-24T04:18:39;10.20;99.90
1524;DHT22;755;53.658;10.118;2023-04-24T04:28:42;10.10;99.90
1524;DHT22;755;53.658;10.118;2023-04-24T04:38:45;10.00;99.90
1524;DHT22;755;53.658;10.118;2023-04-24T04:48:48;10.00;99.90
1524;DHT22;755;53.658;10.118;2023-04-24T04:58:50;10.00;99.90
1524;DHT22;755;53.658;10.118;2023-04-24T05:08:53;10.50;1.00
1524;DHT22;755;53.658;10.118;2023-04-24T05:18:57;11.40;1.00
1524;DHT22;755;53.658;10.118;2023-04-24T05:29:00;12.40;99.90
1524;DHT22;755;53.658;10.118;2023-04-24T05:39:02;11.60;1.00
1524;DHT22;755;53.658;10.118;2023-04-24T05:49:06;11.40;1.00
1524;DHT22;755;53.658;10.118;2023-04-24T05:59:08;12.80;1.00
1524;DHT22;755;53.658;10.118;2023-04-24T06:09:12;12.80;1.00
1524;DHT22;755;53.658;10.118;2023-04-24T06:19:14;12.30;1.00
1524;DHT22;755;53.658;10.118;2023-04-24T06:29:17;12.50;99.90
1524;DHT22;755;53.658;10.118;2023-04-24T06:39:19;12.80;99.90
1524;DHT22;755;53.658;10.118;2023-04-24T06:49:22;12.50;1.00
1524;DHT22;755;53.658;10.118;2023-04-24T06:59:24;12.70;99.90
1524;DHT22;755;53.658;10.118;2023-04-24T07:09:27;13.00;1.00
1524;DHT22;755;53.658;10.118;2023-04-24T07:19:29;12.90;1.00
1524;DHT22;755;53.658;10.118;2023-04-24T07:29:32;13.30;1.00
1524;DHT22;755;53.658;10.118;2023-04-24T07:39:34;13.10;1.00
1524;DHT22;755;53.658;10.118;2023-04-24T07:49:37;12.80;1.00
1524;DHT22;755;53.658;10.118;2023-04-24T07:59:40;13.10;1.00
1524;DHT22;755;53.658;10.118;2023-04-24T08:09:43;13.20;1.00
1524;DHT22;755;53.658;10.118;2023-04-24T08:20:04;14.10;99.90
1524;DHT22;755;53.658;10.118;2023-04-24T08:30:15;13.40;1.00
1524;DHT22;755;53.658;10.118;2023-04-24T08:40:18;14.30;99.90
1524;DHT22;755;53.658;10.118;2023-04-24T08:50:25;14.70;1.00
1524;DHT22;755;53.658;10.118;2023-04-24T09:00:30;13.90;99.90
1524;DHT22;755;53.658;10.118;2023-04-24T09:10:35;13.80;99.90
1524;DHT22;755;53.658;10.118;2023-04-24T09:20:58;13.70;99.90
1524;DHT22;755;53.658;10.118;2023-04-24T09:31:09;13.70;99.90
1524;DHT22;755;53.658;10.118;2023-04-24T09:41:13;13.80;99.90
1524;DHT22;755;53.658;10.118;2023-04-24T09:51:17;13.80;99.90
1524;DHT22;755;53.658;10.118;2023-04-24T10:01:30;13.80;99.90
1524;DHT22;755;53.658;10.118;2023-04-24T10:11:34;13.90;99.90
1524;DHT22;755;53.658;10.118;2023-04-24T10:21:36;13.30;1.00
1524;DHT22;755;53.658;10.118;2023-04-24T10:31:44;13.30;1.00
1524;DHT22;755;53.658;10.118;2023-04-24T10:41:48;13.30;1.00
1524;DHT22;755;53.658;10.118;2023-04-24T10:51:53;13.40;1.00
1524;DHT22;755;53.658;10.118;2023-04-24T11:01:55;13.40;1.00
1524;DHT22;755;53.658;10.118;2023-04-24T11:12:05;13.10;1.00
1524;DHT22;755;53.658;10.118;2023-04-24T11:22:14;13.00;1.00
1524;DHT22;755;53.658;10.118;2023-04-24T11:32:24;13.30;1.00
1524;DHT22;755;53.658;10.118;2023-04-24T11:42:26;14.30;99.90
1524;DHT22;755;53.658;10.118;2023-04-24T11:52:31;14.30;99.90
1524;DHT22;755;53.658;10.118;2023-04-24T12:02:33;14.10;99.90
1524;DHT22;755;53.658;10.118;2023-04-24T12:12:36;14.90;99.90
1524;DHT22;755;53.658;10.118;2023-04-24T12:22:45;14.40;1.00
1524;DHT22;755;53.658;10.118;2023-04-24T12:32:49;13.70;1.00
1524;DHT22;755;53.658;10.118;2023-04-24T12:42:52;14.30;1.00
1524;DHT22;755;53.658;10.118;2023-04-24T12:52:55;14.00;1.00
1524;DHT22;755;53.658;10.118;2023-04-24T13:02:57;13.80;1.00
1524;DHT22;755;53.658;10.118;2023-04-24T13:13:00;13.70;1.00
1524;DHT22;755;53.658;10.118;2023-04-24T13:23:03;13.50;99.90
1524;DHT22;755;53.658;10.118;2023-04-24T13:33:06;13.10;1.00
1524;DHT22;755;53.658;10.118;2023-04-24T13:43:08;12.60;99.90
1524;DHT22;755;53.658;10.118;2023-04-24T13:53:11;12.20;1.00
1524;DHT22;755;53.658;10.118;2023-04-24T14:03:16;11.90;99.90
1524;DHT22;755;53.658;10.118;2023-04-24T14:13:21;12.00;1.00
1524;DHT22;755;53.658;10.118;2023-04-24T14:23:24;12.00;1.00
1524;DHT22;755;53.658;10.118;2023-04-24T14:33:31;12.40;1.00
1524;DHT22;755;53.658;10.118;2023-04-24T14:43:36;12.30;1.00
1524;DHT22;755;53.658;10.118;2023-04-24T14:53:41;12.40;1.00
1524;DHT22;755;53.658;10.118;2023-04-24T15:03:43;12.10;99.90
1524;DHT22;755;53.658;10.118;2023-04-24T15:13:47;11.20;99.90
1524;DHT22;755;53.658;10.118;2023-04-24T15:23:49;11.00;99.90
1524;DHT22;755;53.658;10.118;2023-04-24T15:33:52;10.90;99.90
1524;DHT22;755;53.658;10.118;2023-04-24T15:43:54;10.70;99.90
1524;DHT22;755;53.658;10.118;2023-04-24T15:53:58;10.70;99.90
1524;DHT22;755;53.658;10.118;2023-04-24T16:04:00;10.00;99.90
1524;DHT22;755;53.658;10.118;2023-04-24T16:14:03;9.60;99.90
1524;DHT22;755;53.658;10.118;2023-04-24T16:24:05;9.50;99.90
1524;DHT22;755;53.658;10.118;2023-04-24T16:34:09;9.30;99.90
1524;DHT22;755;53.658;10.118;2023-04-24T16:44:11;9.00;99.90
1524;DHT22;755;53.658;10.118;2023-04-24T16:54:14;9.00;99.90
1524;DHT22;755;53.658;10.118;2023-04-24T17:04:16;8.80;99.90
1524;DHT22;755;53.658;10.118;2023-04-24T17:14:20;8.40;99.90
1524;DHT22;755;53.658;10.118;2023-04-24T17:24:23;8.30;99.90
1524;DHT22;755;53.658;10.118;2023-04-24T17:34:26;8.20;99.90
1524;DHT22;755;53.658;10.118;2023-04-24T17:44:28;8.40;99.90
1524;DHT22;755;53.658;10.118;2023-04-24T17:54:32;8.40;99.90
1524;DHT22;755;53.658;10.118;2023-04-24T18:04:34;8.40;99.90
1524;DHT22;755;53.658;10.118;2023-04-24T18:14:37;8.30;99.90
1524;DHT22;755;53.658;10.118;2023-04-24T18:24:39;8.40;99.90
1524;DHT22;755;53.658;10.118;2023-04-24T18:34:42;8.30;99.90
1524;DHT22;755;53.658;10.118;2023-04-24T18:44:45;8.30;99.90
1524;DHT22;755;53.658;10.118;2023-04-24T18:54:48;8.30;99.90
1524;DHT22;755;53.658;10.118;2023-04-24T19:04:50;8.30;99.90
1524;DHT22;755;53.658;10.118;2023-04-24T19:14:53;8.20;99.90
1524;DHT22;755;53.658;10.118;2023-04-24T19:24:57;8.30;99.90
1524;DHT22;755;53.658;10.118;2023-04-24T19:35:00;8.20;99.90
1524;DHT22;755;53.658;10.118;2023-04-24T19:45:03;8.20;99.90
1524;DHT22;755;53.658;10.118;2023-04-24T19:55:07;8.20;99.90
1524;DHT22;755;53.658;10.118;2023-04-24T20:05:09;8.20;99.90
1524;DHT22;755;53.658;10.118;2023-04-24T20:15:13;8.20;99.90
1524;DHT22;755;53.658;10.118;2023-04-24T20:25:15;8.20;99.90
1524;DHT22;755;53.658;10.118;2023-04-24T20:35:19;8.20;99.90
1524;DHT22;755;53.658;10.118;2023-04-24T20:45:21;8.20;99.90
1524;DHT22;755;53.658;10.118;2023-04-24T20:55:25;8.20;99.90
1524;DHT22;755;53.658;10.118;2023-04-24T21:05:27;8.20;99.90
1524;DHT22;755;53.658;10.118;2023-04-24T21:15:30;8.20;99.90
1524;DHT22;755;53.658;10.118;2023-04-24T21:25:33;8.10;99.90
1524;DHT22;755;53.658;10.118;2023-04-24T21:35:36;8.20;99.90
1524;DHT22;755;53.658;10.118;2023-04-24T21:45:38;8.20;99.90
1524;DHT22;755;53.658;10.118;2023-04-24T21:55:41;8.10;99.90
1524;DHT22;755;53.658;10.118;2023-04-24T22:05:43;8.10;99.90
1524;DHT22;755;53.658;10.118;2023-04-24T22:15:48;8.10;99.90
1524;DHT22;755;53.658;10.118;2023-04-24T22:25:50;8.10;99.90
1524;DHT22;755;53.658;10.118;2023-04-24T22:35:53;8.10;99.90
1524;DHT22;755;53.658;10.118;2023-04-24T22:45:55;8.10;99.90
1524;DHT22;755;53.658;10.118;2023-04-24T22:55:59;8.10;99.90
1524;DHT22;755;53.658;10.118;2023-04-24T23:06:01;8.10;99.90
1524;DHT22;755;53.658;10.118;2023-04-24T23:16:04;8.10;99.90
1524;DHT22;755;53.658;10.118;2023-04-24T23:26:07;8.00;99.90
1524;DHT22;755;53.658;10.118;2023-04-24T23:36:10;8.00;99.90
1524;DHT22;755;53.658;10.118;2023-04-24T23:46:12;8.00;99.90
1524;DHT22;755;53.658;10.118;2023-04-24T23:56:16;7.90;99.90
